sensor_id;sensor_type;location;lat;lon;timestamp;P1;durP1;ratioP1;P2;durP2;ratioP2
12625;SDS011;6378;42.684;23.372;2023-06-05T00:00:27;15.88;;;14.15;;
12625;SDS011;6378;42.684;23.372;2023-06-05T00:02:53;16.08;;;14.40;;
12625;SDS011;6378;42.684;23.372;2023-06-05T00:05:19;16.70;;;13.50;;
12625;SDS011;6378;42.684;23.372;2023-06-05T00:07:44;19.13;;;15.02;;
12625;SDS011;6378;42.684;23.372;2023-06-05T00:10:10;15.90;;;13.80;;
12625;SDS011;6378;42.684;23.372;2023-06-05T00:12:36;16.17;;;13.65;;
12625;SDS011;6378;42.684;23.372;2023-06-05T00:15:02;17.77;;;14.77;;
12625;SDS011;6378;42.684;23.372;2023-06-05T00:17:28;17.58;;;15.68;;
12625;SDS011;6378;42.684;23.372;2023-06-05T00:19:55;23.40;;;16.90;;
12625;SDS011;6378;42.684;23.372;2023-06-05T00:22:23;22.30;;;18.55;;
12625;SDS011;6378;42.684;23.372;2023-06-05T00:24:49;20.15;;;15.60;;
12625;SDS011;6378;42.684;23.372;2023-06-05T00:27:15;19.80;;;15.55;;
12625;SDS011;6378;42.684;23.372;2023-06-05T00:29:40;23.20;;;17.13;;
12625;SDS011;6378;42.684;23.372;2023-06-05T00:32:06;20.95;;;17.80;;
12625;SDS011;6378;42.684;23.372;2023-06-05T00:34:31;22.10;;;16.70;;
12625;SDS011;6378;42.684;23.372;2023-06-05T00:36:57;21.80;;;18.92;;
12625;SDS011;6378;42.684;23.372;2023-06-05T00:39:23;22.52;;;18.60;;
12625;SDS011;6378;42.684;23.372;2023-06-05T00:41:48;24.40;;;19.65;;
12625;SDS011;6378;42.684;23.372;2023-06-05T00:44:14;27.25;;;18.63;;
12625;SDS011;6378;42.684;23.372;2023-06-05T00:46:39;22.77;;;19.02;;
12625;SDS011;6378;42.684;23.372;2023-06-05T00:49:06;24.85;;;19.02;;
12625;SDS011;6378;42.684;23.372;2023-06-05T00:51:33;24.77;;;18.92;;
12625;SDS011;6378;42.684;23.372;2023-06-05T00:53:59;20.48;;;17.13;;
12625;SDS011;6378;42.684;23.372;2023-06-05T00:56:24;24.83;;;19.50;;
12625;SDS011;6378;42.684;23.372;2023-06-05T00:58:52;20.77;;;18.55;;
12625;SDS011;6378;42.684;23.372;2023-06-05T01:01:18;24.88;;;19.02;;
12625;SDS011;6378;42.684;23.372;2023-06-05T01:03:46;20.48;;;17.85;;
12625;SDS011;6378;42.684;23.372;2023-06-05T01:06:12;21.35;;;17.15;;
12625;SDS011;6378;42.684;23.372;2023-06-05T01:08:56;19.00;;;16.73;;
12625;SDS011;6378;42.684;23.372;2023-06-05T01:11:37;21.55;;;17.63;;
12625;SDS011;6378;42.684;23.372;2023-06-05T01:14:15;20.05;;;16.85;;
12625;SDS011;6378;42.684;23.372;2023-06-05T01:16:48;21.05;;;17.48;;
12625;SDS011;6378;42.684;23.372;2023-06-05T01:19:21;22.60;;;18.88;;
12625;SDS011;6378;42.684;23.372;2023-06-05T01:21:49;21.17;;;16.92;;
12625;SDS011;6378;42.684;23.372;2023-06-05T01:24:16;22.65;;;18.95;;
12625;SDS011;6378;42.684;23.372;2023-06-05T01:29:21;22.60;;;18.23;;
12625;SDS011;6378;42.684;23.372;2023-06-05T01:31:55;22.92;;;18.10;;
12625;SDS011;6378;42.684;23.372;2023-06-05T01:34:24;23.42;;;18.65;;
12625;SDS011;6378;42.684;23.372;2023-06-05T01:36:51;22.20;;;18.20;;
12625;SDS011;6378;42.684;23.372;2023-06-05T01:39:18;21.60;;;17.05;;
12625;SDS011;6378;42.684;23.372;2023-06-05T01:41:45;22.02;;;17.60;;
12625;SDS011;6378;42.684;23.372;2023-06-05T01:44:13;22.42;;;17.75;;
12625;SDS011;6378;42.684;23.372;2023-06-05T01:46:40;21.60;;;17.60;;
12625;SDS011;6378;42.684;23.372;2023-06-05T01:49:06;19.80;;;17.25;;
12625;SDS011;6378;42.684;23.372;2023-06-05T01:51:33;19.23;;;16.85;;
12625;SDS011;6378;42.684;23.372;2023-06-05T01:53:59;22.85;;;18.45;;
12625;SDS011;6378;42.684;23.372;2023-06-05T01:56:24;18.40;;;16.45;;
12625;SDS011;6378;42.684;23.372;2023-06-05T01:58:50;22.40;;;16.48;;
12625;SDS011;6378;42.684;23.372;2023-06-05T02:01:18;19.83;;;17.42;;
12625;SDS011;6378;42.684;23.372;2023-06-05T02:03:47;20.13;;;15.85;;
12625;SDS011;6378;42.684;23.372;2023-06-05T02:06:15;21.08;;;15.80;;
12625;SDS011;6378;42.684;23.372;2023-06-05T02:08:41;18.55;;;16.55;;
12625;SDS011;6378;42.684;23.372;2023-06-05T02:11:07;19.67;;;16.17;;
12625;SDS011;6378;42.684;23.372;2023-06-05T02:13:39;23.42;;;15.93;;
12625;SDS011;6378;42.684;23.372;2023-06-05T02:16:09;18.90;;;16.15;;
12625;SDS011;6378;42.684;23.372;2023-06-05T02:18:36;18.40;;;16.35;;
12625;SDS011;6378;42.684;23.372;2023-06-05T02:21:06;20.52;;;15.93;;
12625;SDS011;6378;42.684;23.372;2023-06-05T02:23:31;21.73;;;16.90;;
12625;SDS011;6378;42.684;23.372;2023-06-05T02:25:57;22.27;;;17.02;;
12625;SDS011;6378;42.684;23.372;2023-06-05T02:28:22;21.55;;;17.08;;
12625;SDS011;6378;42.684;23.372;2023-06-05T02:30:48;21.02;;;16.48;;
12625;SDS011;6378;42.684;23.372;2023-06-05T02:33:14;21.50;;;17.58;;
12625;SDS011;6378;42.684;23.372;2023-06-05T02:35:40;23.77;;;17.25;;
12625;SDS011;6378;42.684;23.372;2023-06-05T02:38:07;20.10;;;16.90;;
12625;SDS011;6378;42.684;23.372;2023-06-05T02:40:33;21.10;;;16.67;;
12625;SDS011;6378;42.684;23.372;2023-06-05T02:42:58;20.88;;;16.55;;
12625;SDS011;6378;42.684;23.372;2023-06-05T02:45:25;20.67;;;17.25;;
12625;SDS011;6378;42.684;23.372;2023-06-05T02:47:50;22.05;;;17.38;;
12625;SDS011;6378;42.684;23.372;2023-06-05T02:50:16;23.75;;;17.65;;
12625;SDS011;6378;42.684;23.372;2023-06-05T02:52:42;22.13;;;16.27;;
12625;SDS011;6378;42.684;23.372;2023-06-05T02:55:08;20.20;;;17.83;;
12625;SDS011;6378;42.684;23.372;2023-06-05T02:57:34;20.50;;;16.45;;
12625;SDS011;6378;42.684;23.372;2023-06-05T03:00:06;20.33;;;16.92;;
12625;SDS011;6378;42.684;23.372;2023-06-05T03:02:42;22.77;;;16.70;;
12625;SDS011;6378;42.684;23.372;2023-06-05T03:05:13;22.38;;;17.75;;
12625;SDS011;6378;42.684;23.372;2023-06-05T03:07:38;23.92;;;17.17;;
12625;SDS011;6378;42.684;23.372;2023-06-05T03:10:05;23.67;;;16.65;;
12625;SDS011;6378;42.684;23.372;2023-06-05T03:12:32;19.67;;;15.98;;
12625;SDS011;6378;42.684;23.372;2023-06-05T03:14:57;21.05;;;15.77;;
12625;SDS011;6378;42.684;23.372;2023-06-05T03:17:22;19.45;;;16.38;;
12625;SDS011;6378;42.684;23.372;2023-06-05T03:19:49;20.48;;;16.73;;
12625;SDS011;6378;42.684;23.372;2023-06-05T03:22:15;24.75;;;19.52;;
12625;SDS011;6378;42.684;23.372;2023-06-05T03:24:42;25.35;;;18.33;;
12625;SDS011;6378;42.684;23.372;2023-06-05T03:27:07;20.77;;;16.75;;
12625;SDS011;6378;42.684;23.372;2023-06-05T03:29:33;18.38;;;14.57;;
12625;SDS011;6378;42.684;23.372;2023-06-05T03:31:59;18.50;;;15.63;;
12625;SDS011;6378;42.684;23.372;2023-06-05T03:34:24;17.90;;;14.77;;
12625;SDS011;6378;42.684;23.372;2023-06-05T03:36:51;17.45;;;14.07;;
12625;SDS011;6378;42.684;23.372;2023-06-05T03:39:17;17.55;;;15.05;;
12625;SDS011;6378;42.684;23.372;2023-06-05T03:41:43;21.45;;;16.70;;
12625;SDS011;6378;42.684;23.372;2023-06-05T03:44:08;29.63;;;18.23;;
12625;SDS011;6378;42.684;23.372;2023-06-05T03:46:34;21.50;;;16.02;;
12625;SDS011;6378;42.684;23.372;2023-06-05T03:49:00;15.13;;;13.52;;
12625;SDS011;6378;42.684;23.372;2023-06-05T03:51:30;16.58;;;13.95;;
12625;SDS011;6378;42.684;23.372;2023-06-05T03:53:56;17.55;;;12.65;;
12625;SDS011;6378;42.684;23.372;2023-06-05T03:56:23;16.10;;;12.85;;
12625;SDS011;6378;42.684;23.372;2023-06-05T03:58:59;17.15;;;13.85;;
12625;SDS011;6378;42.684;23.372;2023-06-05T04:01:43;18.20;;;13.18;;
12625;SDS011;6378;42.684;23.372;2023-06-05T04:04:08;16.13;;;13.13;;
12625;SDS011;6378;42.684;23.372;2023-06-05T04:06:35;18.60;;;13.85;;
12625;SDS011;6378;42.684;23.372;2023-06-05T04:09:01;15.57;;;12.35;;
12625;SDS011;6378;42.684;23.372;2023-06-05T04:11:34;18.02;;;12.90;;
12625;SDS011;6378;42.684;23.372;2023-06-05T04:13:59;21.67;;;16.17;;
12625;SDS011;6378;42.684;23.372;2023-06-05T04:16:25;21.33;;;15.70;;
12625;SDS011;6378;42.684;23.372;2023-06-05T04:18:50;20.00;;;13.60;;
12625;SDS011;6378;42.684;23.372;2023-06-05T04:21:16;15.68;;;12.55;;
12625;SDS011;6378;42.684;23.372;2023-06-05T04:23:41;24.05;;;13.40;;
12625;SDS011;6378;42.684;23.372;2023-06-05T04:26:07;14.73;;;11.98;;
12625;SDS011;6378;42.684;23.372;2023-06-05T04:28:32;13.93;;;11.57;;
12625;SDS011;6378;42.684;23.372;2023-06-05T04:30:59;13.80;;;11.20;;
12625;SDS011;6378;42.684;23.372;2023-06-05T04:33:24;13.80;;;12.10;;
12625;SDS011;6378;42.684;23.372;2023-06-05T04:35:50;13.90;;;11.93;;
12625;SDS011;6378;42.684;23.372;2023-06-05T04:38:15;13.38;;;11.88;;
12625;SDS011;6378;42.684;23.372;2023-06-05T04:40:49;17.85;;;12.52;;
12625;SDS011;6378;42.684;23.372;2023-06-05T04:43:15;14.02;;;12.57;;
12625;SDS011;6378;42.684;23.372;2023-06-05T04:45:41;16.08;;;12.85;;
12625;SDS011;6378;42.684;23.372;2023-06-05T04:48:07;16.80;;;12.60;;
12625;SDS011;6378;42.684;23.372;2023-06-05T04:50:33;16.45;;;12.27;;
12625;SDS011;6378;42.684;23.372;2023-06-05T04:53:01;19.65;;;13.48;;
12625;SDS011;6378;42.684;23.372;2023-06-05T04:55:26;18.23;;;12.73;;
12625;SDS011;6378;42.684;23.372;2023-06-05T04:57:52;14.65;;;12.93;;
12625;SDS011;6378;42.684;23.372;2023-06-05T05:00:18;17.92;;;13.75;;
12625;SDS011;6378;42.684;23.372;2023-06-05T05:02:44;19.50;;;14.57;;
12625;SDS011;6378;42.684;23.372;2023-06-05T05:05:10;17.00;;;13.38;;
12625;SDS011;6378;42.684;23.372;2023-06-05T05:07:38;16.55;;;13.80;;
12625;SDS011;6378;42.684;23.372;2023-06-05T05:10:05;20.08;;;13.50;;
12625;SDS011;6378;42.684;23.372;2023-06-05T05:12:33;18.15;;;14.07;;
12625;SDS011;6378;42.684;23.372;2023-06-05T05:14:58;23.67;;;13.95;;
12625;SDS011;6378;42.684;23.372;2023-06-05T05:17:24;15.20;;;13.40;;
12625;SDS011;6378;42.684;23.372;2023-06-05T05:19:51;15.25;;;12.93;;
12625;SDS011;6378;42.684;23.372;2023-06-05T05:22:16;18.08;;;12.75;;
12625;SDS011;6378;42.684;23.372;2023-06-05T05:24:42;16.33;;;12.93;;
12625;SDS011;6378;42.684;23.372;2023-06-05T05:27:07;20.75;;;13.35;;
12625;SDS011;6378;42.684;23.372;2023-06-05T05:29:33;14.70;;;13.23;;
12625;SDS011;6378;42.684;23.372;2023-06-05T05:31:58;13.82;;;12.40;;
12625;SDS011;6378;42.684;23.372;2023-06-05T05:34:24;14.45;;;11.15;;
12625;SDS011;6378;42.684;23.372;2023-06-05T05:36:50;14.57;;;11.93;;
12625;SDS011;6378;42.684;23.372;2023-06-05T05:39:16;17.58;;;12.85;;
12625;SDS011;6378;42.684;23.372;2023-06-05T05:41:41;13.98;;;12.38;;
12625;SDS011;6378;42.684;23.372;2023-06-05T05:44:06;15.27;;;12.27;;
12625;SDS011;6378;42.684;23.372;2023-06-05T05:46:32;18.88;;;13.30;;
12625;SDS011;6378;42.684;23.372;2023-06-05T05:48:58;14.18;;;12.20;;
12625;SDS011;6378;42.684;23.372;2023-06-05T05:51:23;17.13;;;13.75;;
12625;SDS011;6378;42.684;23.372;2023-06-05T05:53:49;15.80;;;12.38;;
12625;SDS011;6378;42.684;23.372;2023-06-05T05:56:15;15.52;;;12.85;;
12625;SDS011;6378;42.684;23.372;2023-06-05T05:58:40;15.15;;;13.15;;
12625;SDS011;6378;42.684;23.372;2023-06-05T06:01:07;15.70;;;13.43;;
12625;SDS011;6378;42.684;23.372;2023-06-05T06:03:33;14.02;;;12.40;;
12625;SDS011;6378;42.684;23.372;2023-06-05T06:06:02;14.52;;;12.57;;
12625;SDS011;6378;42.684;23.372;2023-06-05T06:08:28;15.10;;;12.27;;
12625;SDS011;6378;42.684;23.372;2023-06-05T06:10:55;12.93;;;11.52;;
12625;SDS011;6378;42.684;23.372;2023-06-05T06:13:20;14.90;;;12.60;;
12625;SDS011;6378;42.684;23.372;2023-06-05T06:15:46;14.77;;;12.15;;
12625;SDS011;6378;42.684;23.372;2023-06-05T06:18:11;13.52;;;11.35;;
12625;SDS011;6378;42.684;23.372;2023-06-05T06:20:37;12.93;;;11.57;;
12625;SDS011;6378;42.684;23.372;2023-06-05T06:23:02;16.60;;;12.02;;
12625;SDS011;6378;42.684;23.372;2023-06-05T06:25:28;15.82;;;12.43;;
12625;SDS011;6378;42.684;23.372;2023-06-05T06:27:56;15.32;;;13.25;;
12625;SDS011;6378;42.684;23.372;2023-06-05T06:30:23;18.17;;;13.55;;
12625;SDS011;6378;42.684;23.372;2023-06-05T06:32:49;18.40;;;14.18;;
12625;SDS011;6378;42.684;23.372;2023-06-05T06:35:15;17.45;;;13.75;;
12625;SDS011;6378;42.684;23.372;2023-06-05T06:37:41;18.08;;;13.77;;
12625;SDS011;6378;42.684;23.372;2023-06-05T06:40:07;18.60;;;15.18;;
12625;SDS011;6378;42.684;23.372;2023-06-05T06:42:36;16.33;;;13.68;;
12625;SDS011;6378;42.684;23.372;2023-06-05T06:45:02;17.50;;;14.27;;
12625;SDS011;6378;42.684;23.372;2023-06-05T06:47:29;20.90;;;14.90;;
12625;SDS011;6378;42.684;23.372;2023-06-05T06:49:55;17.90;;;14.18;;
12625;SDS011;6378;42.684;23.372;2023-06-05T06:52:21;24.00;;;15.70;;
12625;SDS011;6378;42.684;23.372;2023-06-05T06:54:47;19.75;;;15.55;;
12625;SDS011;6378;42.684;23.372;2023-06-05T06:57:13;18.90;;;15.65;;
12625;SDS011;6378;42.684;23.372;2023-06-05T06:59:38;20.80;;;14.80;;
12625;SDS011;6378;42.684;23.372;2023-06-05T07:04:39;25.85;;;16.73;;
12625;SDS011;6378;42.684;23.372;2023-06-05T07:07:11;18.48;;;15.40;;
12625;SDS011;6378;42.684;23.372;2023-06-05T07:09:40;18.27;;;15.73;;
12625;SDS011;6378;42.684;23.372;2023-06-05T07:12:10;21.42;;;15.75;;
12625;SDS011;6378;42.684;23.372;2023-06-05T07:14:37;22.20;;;17.50;;
12625;SDS011;6378;42.684;23.372;2023-06-05T07:17:03;27.00;;;21.88;;
12625;SDS011;6378;42.684;23.372;2023-06-05T07:19:30;21.20;;;16.35;;
12625;SDS011;6378;42.684;23.372;2023-06-05T07:21:56;21.08;;;15.93;;
12625;SDS011;6378;42.684;23.372;2023-06-05T07:24:26;17.55;;;15.00;;
12625;SDS011;6378;42.684;23.372;2023-06-05T07:26:57;20.30;;;15.75;;
12625;SDS011;6378;42.684;23.372;2023-06-05T07:29:25;19.27;;;14.80;;
12625;SDS011;6378;42.684;23.372;2023-06-05T07:31:51;19.95;;;13.98;;
12625;SDS011;6378;42.684;23.372;2023-06-05T07:34:18;19.75;;;14.57;;
12625;SDS011;6378;42.684;23.372;2023-06-05T07:36:45;21.65;;;14.90;;
12625;SDS011;6378;42.684;23.372;2023-06-05T07:39:11;19.65;;;15.20;;
12625;SDS011;6378;42.684;23.372;2023-06-05T07:41:38;22.00;;;14.13;;
12625;SDS011;6378;42.684;23.372;2023-06-05T07:44:05;21.80;;;14.52;;
12625;SDS011;6378;42.684;23.372;2023-06-05T07:46:34;21.73;;;15.63;;
12625;SDS011;6378;42.684;23.372;2023-06-05T07:48:59;20.33;;;14.40;;
12625;SDS011;6378;42.684;23.372;2023-06-05T07:51:25;18.48;;;15.25;;
12625;SDS011;6378;42.684;23.372;2023-06-05T07:53:51;18.80;;;13.85;;
12625;SDS011;6378;42.684;23.372;2023-06-05T07:56:16;19.90;;;14.88;;
12625;SDS011;6378;42.684;23.372;2023-06-05T07:58:42;17.13;;;13.32;;
12625;SDS011;6378;42.684;23.372;2023-06-05T08:01:07;18.40;;;14.23;;
12625;SDS011;6378;42.684;23.372;2023-06-05T08:03:33;17.35;;;13.23;;
12625;SDS011;6378;42.684;23.372;2023-06-05T08:05:59;17.00;;;12.50;;
12625;SDS011;6378;42.684;23.372;2023-06-05T08:08:24;17.08;;;13.35;;
12625;SDS011;6378;42.684;23.372;2023-06-05T08:10:50;17.73;;;13.80;;
12625;SDS011;6378;42.684;23.372;2023-06-05T08:13:16;17.50;;;13.38;;
12625;SDS011;6378;42.684;23.372;2023-06-05T08:15:42;20.80;;;14.90;;
12625;SDS011;6378;42.684;23.372;2023-06-05T08:18:07;16.65;;;13.65;;
12625;SDS011;6378;42.684;23.372;2023-06-05T08:20:33;18.38;;;14.02;;
12625;SDS011;6378;42.684;23.372;2023-06-05T08:22:58;17.60;;;13.65;;
12625;SDS011;6378;42.684;23.372;2023-06-05T08:25:24;16.92;;;13.90;;
12625;SDS011;6378;42.684;23.372;2023-06-05T08:27:50;16.60;;;13.60;;
12625;SDS011;6378;42.684;23.372;2023-06-05T08:30:16;17.40;;;13.07;;
12625;SDS011;6378;42.684;23.372;2023-06-05T08:32:42;18.50;;;13.73;;
12625;SDS011;6378;42.684;23.372;2023-06-05T08:35:08;18.08;;;13.45;;
12625;SDS011;6378;42.684;23.372;2023-06-05T08:37:35;16.88;;;13.32;;
12625;SDS011;6378;42.684;23.372;2023-06-05T08:40:01;17.15;;;13.63;;
12625;SDS011;6378;42.684;23.372;2023-06-05T08:42:31;17.70;;;13.57;;
12625;SDS011;6378;42.684;23.372;2023-06-05T08:44:56;18.52;;;13.05;;
12625;SDS011;6378;42.684;23.372;2023-06-05T08:47:22;17.92;;;12.65;;
12625;SDS011;6378;42.684;23.372;2023-06-05T08:49:50;16.15;;;12.82;;
12625;SDS011;6378;42.684;23.372;2023-06-05T08:52:17;18.40;;;13.02;;
12625;SDS011;6378;42.684;23.372;2023-06-05T08:54:46;13.68;;;11.57;;
12625;SDS011;6378;42.684;23.372;2023-06-05T08:57:11;16.60;;;12.20;;
12625;SDS011;6378;42.684;23.372;2023-06-05T08:59:37;13.82;;;11.02;;
12625;SDS011;6378;42.684;23.372;2023-06-05T09:02:03;19.35;;;15.85;;
12625;SDS011;6378;42.684;23.372;2023-06-05T09:04:29;15.25;;;12.02;;
12625;SDS011;6378;42.684;23.372;2023-06-05T09:06:58;15.57;;;13.50;;
12625;SDS011;6378;42.684;23.372;2023-06-05T09:09:25;16.98;;;12.70;;
12625;SDS011;6378;42.684;23.372;2023-06-05T09:12:03;19.23;;;14.95;;
12625;SDS011;6378;42.684;23.372;2023-06-05T09:14:30;14.43;;;11.70;;
12625;SDS011;6378;42.684;23.372;2023-06-05T09:16:59;15.80;;;11.52;;
12625;SDS011;6378;42.684;23.372;2023-06-05T09:19:36;15.88;;;11.32;;
12625;SDS011;6378;42.684;23.372;2023-06-05T09:22:03;13.23;;;10.75;;
12625;SDS011;6378;42.684;23.372;2023-06-05T09:24:30;15.43;;;11.20;;
12625;SDS011;6378;42.684;23.372;2023-06-05T09:34:30;17.05;;;13.50;;
12625;SDS011;6378;42.684;23.372;2023-06-05T09:36:58;12.20;;;9.52;;
12625;SDS011;6378;42.684;23.372;2023-06-05T09:39:27;12.55;;;9.25;;
12625;SDS011;6378;42.684;23.372;2023-06-05T09:41:54;12.52;;;9.50;;
12625;SDS011;6378;42.684;23.372;2023-06-05T09:44:21;13.63;;;10.07;;
12625;SDS011;6378;42.684;23.372;2023-06-05T09:46:57;12.23;;;8.40;;
12625;SDS011;6378;42.684;23.372;2023-06-05T09:52:11;12.65;;;9.68;;
12625;SDS011;6378;42.684;23.372;2023-06-05T09:54:38;10.10;;;8.80;;
12625;SDS011;6378;42.684;23.372;2023-06-05T09:57:06;11.65;;;8.90;;
12625;SDS011;6378;42.684;23.372;2023-06-05T09:59:45;13.00;;;8.85;;
12625;SDS011;6378;42.684;23.372;2023-06-05T10:02:16;12.30;;;9.73;;
12625;SDS011;6378;42.684;23.372;2023-06-05T10:04:48;14.27;;;10.00;;
12625;SDS011;6378;42.684;23.372;2023-06-05T10:07:17;13.45;;;10.95;;
12625;SDS011;6378;42.684;23.372;2023-06-05T10:09:44;15.43;;;10.45;;
12625;SDS011;6378;42.684;23.372;2023-06-05T10:12:14;16.00;;;11.77;;
12625;SDS011;6378;42.684;23.372;2023-06-05T10:14:41;13.88;;;11.20;;
12625;SDS011;6378;42.684;23.372;2023-06-05T10:17:08;14.32;;;12.85;;
12625;SDS011;6378;42.684;23.372;2023-06-05T10:19:36;13.32;;;10.82;;
12625;SDS011;6378;42.684;23.372;2023-06-05T10:22:05;14.88;;;11.40;;
12625;SDS011;6378;42.684;23.372;2023-06-05T10:24:34;15.05;;;11.55;;
12625;SDS011;6378;42.684;23.372;2023-06-05T10:35:08;12.32;;;10.75;;
12625;SDS011;6378;42.684;23.372;2023-06-05T10:40:24;12.13;;;10.45;;
12625;SDS011;6378;42.684;23.372;2023-06-05T10:42:50;17.00;;;10.88;;
12625;SDS011;6378;42.684;23.372;2023-06-05T10:45:31;18.55;;;10.90;;
12625;SDS011;6378;42.684;23.372;2023-06-05T10:47:57;14.93;;;10.85;;
12625;SDS011;6378;42.684;23.372;2023-06-05T10:50:23;14.68;;;11.60;;
12625;SDS011;6378;42.684;23.372;2023-06-05T10:52:53;17.67;;;11.52;;
12625;SDS011;6378;42.684;23.372;2023-06-05T10:55:21;15.82;;;11.60;;
12625;SDS011;6378;42.684;23.372;2023-06-05T11:00:38;20.92;;;16.38;;
12625;SDS011;6378;42.684;23.372;2023-06-05T11:03:52;14.73;;;11.68;;
12625;SDS011;6378;42.684;23.372;2023-06-05T11:06:22;14.45;;;13.02;;
12625;SDS011;6378;42.684;23.372;2023-06-05T11:09:07;15.02;;;12.45;;
12625;SDS011;6378;42.684;23.372;2023-06-05T11:11:55;15.88;;;12.52;;
12625;SDS011;6378;42.684;23.372;2023-06-05T11:14:25;15.75;;;13.05;;
12625;SDS011;6378;42.684;23.372;2023-06-05T11:19:57;15.63;;;11.70;;
12625;SDS011;6378;42.684;23.372;2023-06-05T11:22:22;15.80;;;12.02;;
12625;SDS011;6378;42.684;23.372;2023-06-05T11:25:23;17.95;;;12.32;;
12625;SDS011;6378;42.684;23.372;2023-06-05T11:27:59;14.20;;;11.63;;
12625;SDS011;6378;42.684;23.372;2023-06-05T11:30:40;13.27;;;10.13;;
12625;SDS011;6378;42.684;23.372;2023-06-05T11:33:15;10.90;;;9.43;;
12625;SDS011;6378;42.684;23.372;2023-06-05T11:35:42;13.10;;;9.80;;
12625;SDS011;6378;42.684;23.372;2023-06-05T11:38:13;11.27;;;9.45;;
12625;SDS011;6378;42.684;23.372;2023-06-05T11:40:43;13.75;;;10.50;;
12625;SDS011;6378;42.684;23.372;2023-06-05T11:43:11;11.95;;;9.38;;
12625;SDS011;6378;42.684;23.372;2023-06-05T11:45:38;15.27;;;9.73;;
12625;SDS011;6378;42.684;23.372;2023-06-05T11:48:08;12.65;;;9.50;;
12625;SDS011;6378;42.684;23.372;2023-06-05T11:50:35;10.35;;;9.25;;
12625;SDS011;6378;42.684;23.372;2023-06-05T11:53:08;10.45;;;8.55;;
12625;SDS011;6378;42.684;23.372;2023-06-05T11:55:35;12.77;;;8.98;;
12625;SDS011;6378;42.684;23.372;2023-06-05T11:58:25;13.93;;;9.77;;
12625;SDS011;6378;42.684;23.372;2023-06-05T12:01:04;8.73;;;7.80;;
12625;SDS011;6378;42.684;23.372;2023-06-05T12:03:30;12.77;;;11.40;;
12625;SDS011;6378;42.684;23.372;2023-06-05T12:05:55;11.90;;;8.32;;
12625;SDS011;6378;42.684;23.372;2023-06-05T12:08:25;9.48;;;8.20;;
12625;SDS011;6378;42.684;23.372;2023-06-05T12:11:18;10.38;;;9.27;;
12625;SDS011;6378;42.684;23.372;2023-06-05T12:13:56;9.55;;;8.30;;
12625;SDS011;6378;42.684;23.372;2023-06-05T12:19:00;10.52;;;8.90;;
12625;SDS011;6378;42.684;23.372;2023-06-05T12:21:27;11.95;;;8.50;;
12625;SDS011;6378;42.684;23.372;2023-06-05T12:24:02;10.50;;;8.23;;
12625;SDS011;6378;42.684;23.372;2023-06-05T12:26:29;8.77;;;7.65;;
12625;SDS011;6378;42.684;23.372;2023-06-05T12:29:04;7.95;;;7.15;;
12625;SDS011;6378;42.684;23.372;2023-06-05T12:31:37;9.85;;;7.68;;
12625;SDS011;6378;42.684;23.372;2023-06-05T12:34:05;7.32;;;6.35;;
12625;SDS011;6378;42.684;23.372;2023-06-05T12:36:31;7.78;;;6.80;;
12625;SDS011;6378;42.684;23.372;2023-06-05T12:39:04;6.40;;;5.82;;
12625;SDS011;6378;42.684;23.372;2023-06-05T12:41:31;7.40;;;6.40;;
12625;SDS011;6378;42.684;23.372;2023-06-05T12:44:00;6.32;;;5.70;;
12625;SDS011;6378;42.684;23.372;2023-06-05T12:46:32;8.13;;;6.18;;
12625;SDS011;6378;42.684;23.372;2023-06-05T12:48:59;8.43;;;6.85;;
12625;SDS011;6378;42.684;23.372;2023-06-05T12:51:25;8.60;;;6.68;;
12625;SDS011;6378;42.684;23.372;2023-06-05T12:53:55;8.98;;;6.65;;
12625;SDS011;6378;42.684;23.372;2023-06-05T12:56:22;6.38;;;5.57;;
12625;SDS011;6378;42.684;23.372;2023-06-05T12:58:50;6.40;;;5.80;;
12625;SDS011;6378;42.684;23.372;2023-06-05T13:01:17;9.57;;;6.97;;
12625;SDS011;6378;42.684;23.372;2023-06-05T13:03:43;8.00;;;6.60;;
12625;SDS011;6378;42.684;23.372;2023-06-05T13:06:09;7.78;;;6.95;;
12625;SDS011;6378;42.684;23.372;2023-06-05T13:08:35;7.43;;;6.15;;
12625;SDS011;6378;42.684;23.372;2023-06-05T13:11:00;6.03;;;5.45;;
12625;SDS011;6378;42.684;23.372;2023-06-05T13:13:26;7.97;;;6.13;;
12625;SDS011;6378;42.684;23.372;2023-06-05T13:15:51;7.03;;;6.03;;
12625;SDS011;6378;42.684;23.372;2023-06-05T13:18:16;8.88;;;6.63;;
12625;SDS011;6378;42.684;23.372;2023-06-05T13:20:42;6.97;;;6.28;;
12625;SDS011;6378;42.684;23.372;2023-06-05T13:23:08;6.80;;;6.20;;
12625;SDS011;6378;42.684;23.372;2023-06-05T13:25:35;6.70;;;6.07;;
12625;SDS011;6378;42.684;23.372;2023-06-05T13:28:00;7.53;;;6.82;;
12625;SDS011;6378;42.684;23.372;2023-06-05T13:30:26;7.55;;;6.70;;
12625;SDS011;6378;42.684;23.372;2023-06-05T13:32:51;6.93;;;6.22;;
12625;SDS011;6378;42.684;23.372;2023-06-05T13:35:17;7.72;;;6.60;;
12625;SDS011;6378;42.684;23.372;2023-06-05T13:37:43;7.95;;;7.15;;
12625;SDS011;6378;42.684;23.372;2023-06-05T13:40:08;7.43;;;6.72;;
12625;SDS011;6378;42.684;23.372;2023-06-05T13:42:35;6.90;;;5.78;;
12625;SDS011;6378;42.684;23.372;2023-06-05T13:45:01;6.55;;;5.95;;
12625;SDS011;6378;42.684;23.372;2023-06-05T13:47:28;6.93;;;6.03;;
12625;SDS011;6378;42.684;23.372;2023-06-05T13:49:53;6.60;;;5.97;;
12625;SDS011;6378;42.684;23.372;2023-06-05T13:52:19;8.60;;;6.20;;
12625;SDS011;6378;42.684;23.372;2023-06-05T13:54:46;7.57;;;6.20;;
12625;SDS011;6378;42.684;23.372;2023-06-05T13:57:11;7.47;;;6.32;;
12625;SDS011;6378;42.684;23.372;2023-06-05T13:59:37;8.15;;;6.00;;
12625;SDS011;6378;42.684;23.372;2023-06-05T14:02:03;7.60;;;6.28;;
12625;SDS011;6378;42.684;23.372;2023-06-05T14:04:29;5.90;;;5.30;;
12625;SDS011;6378;42.684;23.372;2023-06-05T14:06:54;6.30;;;5.70;;
12625;SDS011;6378;42.684;23.372;2023-06-05T14:09:20;7.38;;;6.40;;
12625;SDS011;6378;42.684;23.372;2023-06-05T14:11:46;7.80;;;6.18;;
12625;SDS011;6378;42.684;23.372;2023-06-05T14:14:11;6.32;;;5.72;;
12625;SDS011;6378;42.684;23.372;2023-06-05T14:16:37;7.25;;;6.63;;
12625;SDS011;6378;42.684;23.372;2023-06-05T14:19:03;10.15;;;6.35;;
12625;SDS011;6378;42.684;23.372;2023-06-05T14:21:28;8.23;;;6.28;;
12625;SDS011;6378;42.684;23.372;2023-06-05T14:23:54;7.13;;;6.00;;
12625;SDS011;6378;42.684;23.372;2023-06-05T14:26:19;6.78;;;6.10;;
12625;SDS011;6378;42.684;23.372;2023-06-05T14:28:46;6.63;;;5.90;;
12625;SDS011;6378;42.684;23.372;2023-06-05T14:31:12;6.18;;;5.55;;
12625;SDS011;6378;42.684;23.372;2023-06-05T14:33:38;6.90;;;5.88;;
12625;SDS011;6378;42.684;23.372;2023-06-05T14:36:03;6.53;;;5.85;;
12625;SDS011;6378;42.684;23.372;2023-06-05T14:38:30;6.32;;;5.72;;
12625;SDS011;6378;42.684;23.372;2023-06-05T14:40:55;7.78;;;5.97;;
12625;SDS011;6378;42.684;23.372;2023-06-05T14:43:22;7.78;;;6.30;;
12625;SDS011;6378;42.684;23.372;2023-06-05T14:45:48;7.18;;;6.15;;
12625;SDS011;6378;42.684;23.372;2023-06-05T14:48:13;7.88;;;6.25;;
12625;SDS011;6378;42.684;23.372;2023-06-05T14:50:39;8.55;;;6.60;;
12625;SDS011;6378;42.684;23.372;2023-06-05T14:53:05;8.00;;;6.15;;
12625;SDS011;6378;42.684;23.372;2023-06-05T14:55:30;7.82;;;6.03;;
12625;SDS011;6378;42.684;23.372;2023-06-05T14:57:56;12.52;;;7.88;;
12625;SDS011;6378;42.684;23.372;2023-06-05T15:00:21;7.78;;;6.97;;
12625;SDS011;6378;42.684;23.372;2023-06-05T15:02:47;10.65;;;9.15;;
12625;SDS011;6378;42.684;23.372;2023-06-05T15:05:12;7.30;;;6.45;;